createdAt,value
2023-05-10T00:01:40.633Z,18.56
2023-05-10T00:04:10.376Z,17.65
2023-05-10T00:06:40.230Z,17.63
2023-05-10T00:09:10.060Z,17.68
2023-05-10T00:11:45.397Z,17.80
2023-05-10T00:14:15.565Z,17.26
2023-05-10T00:16:45.438Z,17.42
2023-05-10T00:19:15.404Z,16.32
2023-05-10T00:21:45.666Z,16.82
2023-05-10T00:24:15.449Z,16.44
2023-05-10T00:26:47.793Z,16.49
2023-05-10T00:29:17.757Z,15.96
2023-05-10T00:31:47.503Z,15.30
2023-05-10T00:34:17.235Z,15.11
2023-05-10T00:36:46.934Z,15.17
2023-05-10T00:39:17.332Z,16.07
2023-05-10T00:41:50.629Z,15.71
2023-05-10T00:44:21.355Z,15.25
2023-05-10T00:46:52.364Z,14.94
2023-05-10T00:49:23.405Z,14.69
2023-05-10T00:51:53.404Z,14.07
2023-05-10T00:54:24.029Z,14.05
2023-05-10T00:56:58.175Z,13.85
2023-05-10T00:59:28.309Z,13.34
2023-05-10T01:01:58.224Z,13.29
2023-05-10T01:04:28.418Z,13.48
2023-05-10T01:06:58.391Z,13.71
2023-05-10T01:09:29.016Z,13.53
2023-05-10T01:12:02.219Z,13.32
2023-05-10T01:14:33.140Z,13.61
2023-05-10T01:17:05.049Z,13.19
2023-05-10T01:19:36.090Z,13.79
2023-05-10T01:22:10.139Z,13.51
2023-05-10T01:24:50.546Z,14.07
2023-05-10T01:27:40.915Z,13.71
2023-05-10T01:30:40.661Z,13.05
2023-05-10T01:33:18.075Z,13.38
2023-05-10T01:35:55.006Z,13.36
2023-05-10T01:38:33.239Z,13.44
2023-05-10T01:41:12.205Z,14.06
2023-05-10T01:43:52.205Z,13.50
2023-05-10T01:46:29.268Z,12.83
2023-05-10T01:49:05.230Z,12.69
2023-05-10T01:51:41.345Z,12.80
2023-05-10T01:54:13.464Z,13.37
2023-05-10T01:56:44.648Z,13.07
2023-05-10T01:59:17.270Z,12.98
2023-05-10T02:01:48.897Z,13.73
2023-05-10T02:04:23.914Z,14.75
2023-05-10T02:06:56.798Z,14.02
2023-05-10T02:09:28.365Z,14.67
2023-05-10T02:11:59.665Z,15.24
2023-05-10T02:14:30.830Z,15.17
2023-05-10T02:17:02.402Z,15.37
2023-05-10T02:19:36.337Z,15.08
2023-05-10T02:22:07.234Z,15.74
2023-05-10T02:24:38.707Z,15.69
2023-05-10T02:27:09.118Z,15.34
2023-05-10T02:29:40.747Z,16.39
2023-05-10T02:32:14.077Z,16.66
2023-05-10T02:34:52.990Z,17.29
2023-05-10T02:37:23.716Z,17.43
2023-05-10T02:39:55.254Z,18.14
2023-05-10T02:42:28.053Z,18.26
2023-05-10T02:45:00.481Z,17.57
2023-05-10T02:47:30.904Z,17.75
2023-05-10T02:50:03.960Z,18.53
2023-05-10T02:52:45.203Z,19.56
2023-05-10T02:55:18.421Z,19.29
2023-05-10T02:57:52.730Z,19.55
2023-05-10T03:00:22.851Z,20.31
2023-05-10T03:02:52.679Z,20.60
2023-05-10T03:05:25.188Z,21.67
2023-05-10T03:07:56.769Z,22.98
2023-05-10T03:10:31.013Z,24.15
2023-05-10T03:13:09.840Z,26.00
2023-05-10T03:15:48.994Z,27.78
2023-05-10T03:18:22.460Z,27.97
2023-05-10T03:21:00.539Z,29.23
2023-05-10T03:23:32.023Z,29.45
2023-05-10T03:26:03.389Z,30.86
2023-05-10T03:28:35.555Z,30.44
2023-05-10T03:31:08.432Z,30.47
2023-05-10T03:33:38.370Z,30.13
2023-05-10T03:36:11.557Z,30.22
2023-05-10T03:38:41.345Z,29.95
2023-05-10T03:41:11.221Z,29.99
2023-05-10T03:43:40.993Z,30.57
2023-05-10T03:46:10.900Z,31.72
2023-05-10T03:48:40.800Z,30.57
2023-05-10T03:51:13.538Z,31.83
2023-05-10T03:53:43.514Z,31.10
2023-05-10T03:56:13.233Z,29.58
2023-05-10T03:58:42.849Z,29.83
2023-05-10T04:01:12.705Z,29.13
2023-05-10T04:03:42.554Z,29.12
2023-05-10T04:06:15.144Z,29.78
2023-05-10T04:08:44.863Z,28.94
2023-05-10T04:11:15.642Z,29.28
2023-05-10T04:13:45.347Z,29.95
2023-05-10T04:16:15.023Z,31.53
2023-05-10T04:18:44.748Z,32.05
2023-05-10T04:21:20.195Z,32.14
2023-05-10T04:23:49.844Z,32.67
2023-05-10T04:26:19.595Z,34.04
2023-05-10T04:28:49.339Z,33.10
2023-05-10T04:31:19.207Z,32.39
2023-05-10T04:33:49.023Z,34.12
2023-05-10T04:36:21.463Z,34.53
2023-05-10T04:38:51.085Z,34.59
2023-05-10T04:41:21.666Z,33.69
2023-05-10T04:43:52.245Z,35.67
2023-05-10T04:46:22.876Z,34.52
2023-05-10T04:48:52.741Z,34.61
2023-05-10T04:51:25.039Z,34.91
2023-05-10T04:54:05.066Z,35.43
2023-05-10T04:56:36.015Z,35.17
2023-05-10T04:59:05.689Z,35.82
2023-05-10T05:01:35.403Z,34.34
2023-05-10T05:04:05.175Z,34.09
2023-05-10T05:06:37.478Z,34.04
2023-05-10T05:09:07.185Z,35.07
2023-05-10T05:11:36.953Z,34.54
2023-05-10T05:14:06.829Z,33.19
2023-05-10T05:16:36.493Z,34.81
2023-05-10T05:19:06.341Z,33.69
2023-05-10T05:21:38.640Z,33.99
2023-05-10T05:24:09.107Z,34.00
2023-05-10T05:26:38.822Z,33.43
2023-05-10T05:29:08.544Z,33.37
2023-05-10T05:31:38.404Z,33.52
2023-05-10T05:34:08.141Z,32.99
2023-05-10T05:36:42.244Z,32.15
2023-05-10T05:39:12.139Z,33.12
2023-05-10T05:41:41.947Z,33.46
2023-05-10T05:44:11.640Z,34.18
2023-05-10T05:46:41.327Z,33.09
2023-05-10T05:49:11.052Z,32.49
2023-05-10T05:51:43.315Z,31.81
2023-05-10T05:54:13.107Z,30.89
2023-05-10T05:56:42.757Z,29.81
2023-05-10T05:59:12.686Z,28.36
2023-05-10T06:01:42.414Z,27.62
2023-05-10T06:04:13.667Z,26.98
2023-05-10T06:06:46.133Z,26.92
2023-05-10T06:09:15.990Z,26.85
2023-05-10T06:11:45.710Z,25.87
2023-05-10T06:14:15.361Z,27.18
2023-05-10T06:16:45.096Z,27.03
2023-05-10T06:19:14.804Z,27.31
2023-05-10T06:21:47.030Z,25.61
2023-05-10T06:24:16.715Z,25.93
2023-05-10T06:26:46.474Z,25.85
2023-05-10T06:29:16.494Z,26.14
2023-05-10T06:31:46.247Z,26.11
2023-05-10T06:34:15.923Z,25.89
2023-05-10T06:36:48.610Z,25.95
2023-05-10T06:39:18.288Z,25.12
2023-05-10T06:41:47.969Z,24.93
2023-05-10T06:44:17.698Z,25.96
2023-05-10T06:46:47.497Z,25.99
2023-05-10T06:49:17.316Z,26.07
2023-05-10T06:51:49.570Z,25.58
2023-05-10T06:54:19.240Z,26.64
2023-05-10T06:56:49.014Z,26.31
2023-05-10T06:59:20.370Z,26.48
2023-05-10T07:01:50.095Z,26.05
2023-05-10T07:04:19.836Z,25.97
2023-05-10T07:06:52.149Z,25.73
2023-05-10T07:09:21.798Z,25.38
2023-05-10T07:11:51.407Z,24.05
2023-05-10T07:14:21.031Z,23.61
2023-05-10T07:16:50.788Z,24.43
2023-05-10T07:19:20.707Z,23.92
2023-05-10T07:21:52.950Z,22.60
2023-05-10T07:24:22.633Z,22.54
2023-05-10T07:26:52.268Z,22.80
2023-05-10T07:29:22.057Z,20.96
2023-05-10T07:31:51.764Z,21.10
2023-05-10T07:34:21.505Z,19.76
2023-05-10T07:36:53.891Z,19.66
2023-05-10T07:39:27.166Z,20.09
2023-05-10T07:41:57.599Z,20.16
2023-05-10T07:44:27.292Z,20.63
2023-05-10T07:46:56.980Z,20.73
2023-05-10T07:49:27.528Z,20.67
2023-05-10T07:51:59.728Z,20.70
2023-05-10T07:54:29.459Z,21.44
2023-05-10T07:56:59.112Z,21.77
2023-05-10T07:59:28.859Z,21.69
2023-05-10T08:01:58.500Z,21.88
2023-05-10T08:04:28.210Z,21.15
2023-05-10T08:07:00.633Z,21.98
2023-05-10T08:09:30.309Z,21.41
2023-05-10T08:12:00.539Z,21.47
2023-05-10T08:14:30.994Z,21.12
2023-05-10T08:17:00.664Z,22.00
2023-05-10T08:19:30.362Z,21.87
2023-05-10T08:22:02.664Z,22.46
2023-05-10T08:24:32.434Z,22.84
2023-05-10T08:27:02.194Z,23.09
2023-05-10T08:29:38.625Z,23.20
2023-05-10T08:32:16.207Z,23.04
2023-05-10T08:34:45.894Z,23.36
2023-05-10T08:37:18.230Z,23.25
2023-05-10T08:39:49.060Z,23.92
2023-05-10T08:42:21.215Z,23.44
2023-05-10T08:44:52.255Z,24.36
2023-05-10T08:47:22.593Z,24.10
2023-05-10T08:49:52.587Z,25.63
2023-05-10T08:52:27.961Z,25.85
2023-05-10T08:54:57.804Z,25.12
2023-05-10T08:57:27.861Z,25.81
2023-05-10T08:59:57.515Z,26.10
2023-05-10T09:02:27.572Z,25.77
2023-05-10T09:04:57.375Z,25.42
2023-05-10T09:07:29.944Z,25.61
2023-05-10T09:10:00.973Z,25.55
2023-05-10T09:12:31.257Z,25.00
2023-05-10T09:15:03.634Z,24.27
2023-05-10T09:17:34.007Z,25.10
2023-05-10T09:20:05.167Z,25.94
2023-05-10T09:22:37.433Z,26.16
2023-05-10T09:25:07.826Z,25.78
2023-05-10T09:27:37.559Z,25.70
2023-05-10T09:30:07.787Z,25.90
2023-05-10T09:32:41.044Z,26.04
2023-05-10T09:35:15.110Z,25.75
2023-05-10T09:37:50.447Z,25.68
2023-05-10T09:40:21.043Z,25.37
2023-05-10T09:42:56.374Z,27.02
2023-05-10T09:45:27.452Z,26.54
2023-05-10T09:47:57.442Z,26.61
2023-05-10T09:50:27.788Z,25.64
2023-05-10T09:53:02.140Z,26.26
2023-05-10T09:55:42.535Z,25.01
2023-05-10T09:58:13.541Z,24.30
2023-05-10T10:00:43.888Z,23.30
2023-05-10T10:03:17.049Z,23.59
2023-05-10T10:05:47.820Z,23.26
2023-05-10T10:08:20.513Z,22.46
2023-05-10T10:10:53.388Z,21.94
2023-05-10T10:13:23.152Z,22.43
2023-05-10T10:15:53.811Z,22.07
2023-05-10T10:18:28.085Z,21.56
2023-05-10T10:20:58.052Z,22.61
2023-05-10T10:23:31.294Z,21.74
2023-05-10T10:26:01.326Z,21.76
2023-05-10T10:28:39.282Z,21.00
2023-05-10T10:31:20.289Z,20.08
2023-05-10T10:34:03.230Z,19.80
2023-05-10T10:36:34.998Z,19.31
2023-05-10T10:39:13.565Z,20.44
2023-05-10T10:41:45.568Z,20.04
2023-05-10T10:44:28.687Z,19.59
2023-05-10T10:47:10.372Z,18.30
2023-05-10T10:49:46.871Z,17.01
2023-05-10T10:52:36.193Z,16.36
2023-05-10T10:55:10.381Z,15.26
2023-05-10T10:57:47.353Z,15.38
2023-05-10T11:00:27.656Z,15.18
2023-05-10T11:02:59.891Z,15.98
2023-05-10T11:05:37.533Z,15.74
2023-05-10T11:08:17.800Z,16.66
2023-05-10T11:10:57.736Z,16.51
2023-05-10T11:13:34.573Z,15.24
2023-05-10T11:16:14.207Z,14.75
2023-05-10T11:18:44.021Z,14.18
2023-05-10T11:21:14.497Z,13.54
2023-05-10T11:23:57.180Z,13.49
2023-05-10T11:26:34.076Z,14.48
2023-05-10T11:29:06.144Z,13.30
2023-05-10T11:31:36.532Z,13.20
2023-05-10T11:34:06.254Z,12.41
2023-05-10T11:36:37.869Z,12.34
2023-05-10T11:39:07.874Z,12.44
2023-05-10T11:41:41.032Z,12.54
2023-05-10T11:44:13.196Z,12.80
2023-05-10T11:46:43.007Z,13.38
2023-05-10T11:49:14.405Z,12.67
2023-05-10T11:51:44.737Z,13.48
2023-05-10T11:54:15.337Z,13.43
2023-05-10T11:56:47.709Z,13.47
2023-05-10T11:59:18.146Z,13.52
2023-05-10T12:01:47.950Z,13.52
2023-05-10T12:04:18.117Z,14.31
2023-05-10T12:06:48.266Z,14.84
2023-05-10T12:09:22.960Z,15.89
2023-05-10T12:12:04.028Z,16.98
2023-05-10T12:14:37.776Z,17.11
2023-05-10T12:17:07.430Z,17.01
2023-05-10T12:19:42.837Z,17.22
2023-05-10T12:22:12.596Z,16.98
2023-05-10T12:24:42.244Z,17.10
2023-05-10T12:27:14.558Z,16.93
2023-05-10T12:29:46.779Z,17.44
2023-05-10T12:32:16.584Z,17.85
2023-05-10T12:34:46.405Z,16.05
2023-05-10T12:37:16.185Z,15.31
2023-05-10T12:39:47.278Z,14.96
2023-05-10T12:42:20.375Z,15.06
2023-05-10T12:44:50.061Z,15.12
2023-05-10T12:47:19.706Z,14.69
2023-05-10T12:49:49.358Z,15.52
2023-05-10T12:52:19.077Z,16.46
2023-05-10T12:54:48.782Z,16.64
2023-05-10T12:57:21.200Z,16.46
2023-05-10T12:59:50.965Z,15.71
2023-05-10T13:02:22.593Z,15.80
2023-05-10T13:04:52.457Z,19.54
2023-05-10T13:07:22.134Z,17.41
2023-05-10T13:09:51.787Z,17.43
2023-05-10T13:12:23.990Z,16.90
2023-05-10T13:14:53.640Z,16.91
2023-05-10T13:17:23.280Z,17.62
2023-05-10T13:19:52.887Z,17.19
2023-05-10T13:22:32.437Z,16.93
2023-05-10T13:25:06.910Z,16.16
2023-05-10T13:27:39.251Z,16.75
2023-05-10T13:30:09.781Z,16.82
2023-05-10T13:32:39.585Z,15.90
2023-05-10T13:35:09.735Z,14.91
2023-05-10T13:37:39.415Z,14.45
2023-05-10T13:40:09.886Z,12.85
2023-05-10T13:42:42.205Z,11.37
2023-05-10T13:45:13.283Z,10.30
2023-05-10T13:47:43.088Z,10.33
2023-05-10T13:50:13.119Z,10.46
2023-05-10T13:52:42.736Z,9.98
2023-05-10T13:55:13.487Z,10.06
2023-05-10T13:57:45.725Z,10.13
2023-05-10T14:00:16.278Z,10.03
2023-05-10T14:02:45.951Z,10.33
2023-05-10T14:05:17.054Z,10.38
2023-05-10T14:07:47.803Z,10.64
2023-05-10T14:10:17.499Z,11.01
2023-05-10T14:12:49.840Z,11.24
2023-05-10T14:15:19.864Z,10.62
2023-05-10T14:17:49.685Z,10.87
2023-05-10T14:20:19.369Z,11.21
2023-05-10T14:22:49.024Z,11.48
2023-05-10T14:25:18.939Z,12.34
2023-05-10T14:27:52.026Z,13.64
2023-05-10T14:30:21.759Z,14.38
2023-05-10T14:32:51.461Z,15.07
2023-05-10T14:35:21.580Z,15.61
2023-05-10T14:37:51.432Z,17.24
2023-05-10T14:40:22.178Z,17.10
2023-05-10T14:42:54.680Z,17.72
2023-05-10T14:45:24.914Z,18.51
2023-05-10T14:47:54.598Z,18.41
2023-05-10T14:50:36.073Z,18.88
2023-05-10T14:53:06.836Z,17.43
2023-05-10T14:55:36.629Z,15.65
2023-05-10T14:58:08.908Z,13.88
2023-05-10T15:00:38.541Z,14.09
2023-05-10T15:03:08.790Z,13.64
2023-05-10T15:05:38.935Z,13.26
2023-05-10T15:08:08.614Z,13.37
2023-05-10T15:10:38.284Z,11.80
2023-05-10T15:13:10.525Z,9.98
2023-05-10T15:15:40.277Z,8.87
2023-05-10T15:18:10.029Z,8.88
2023-05-10T15:20:39.694Z,8.88
2023-05-10T15:23:09.340Z,9.27
2023-05-10T15:25:38.965Z,8.55
2023-05-10T15:28:11.274Z,8.28
2023-05-10T15:30:40.878Z,7.87
2023-05-10T15:33:10.774Z,6.89
2023-05-10T15:35:40.747Z,6.34
2023-05-10T15:38:10.445Z,6.36
2023-05-10T15:40:40.104Z,5.75
2023-05-10T15:43:12.389Z,5.92
2023-05-10T15:45:42.332Z,6.20
2023-05-10T15:48:12.095Z,6.99
2023-05-10T15:50:41.945Z,6.67
2023-05-10T15:53:11.641Z,6.05
2023-05-10T15:55:41.351Z,6.19
2023-05-10T15:58:14.082Z,6.64
2023-05-10T16:00:43.802Z,6.65
2023-05-10T16:03:13.708Z,6.62
2023-05-10T16:05:43.483Z,6.89
2023-05-10T16:08:13.174Z,8.10
2023-05-10T16:10:43.080Z,7.98
2023-05-10T16:13:15.963Z,7.83
2023-05-10T16:15:45.905Z,8.15
2023-05-10T16:18:18.078Z,8.44
2023-05-10T16:20:48.023Z,8.80
2023-05-10T16:23:17.888Z,8.88
2023-05-10T16:25:47.555Z,9.84
2023-05-10T16:28:21.164Z,10.10
2023-05-10T16:30:51.225Z,9.52
2023-05-10T16:33:20.885Z,9.76
2023-05-10T16:35:50.529Z,10.76
2023-05-10T16:38:21.703Z,11.76
2023-05-10T16:40:51.420Z,12.68
2023-05-10T16:43:25.865Z,11.92
2023-05-10T16:45:55.899Z,12.73
2023-05-10T16:48:26.031Z,12.35
2023-05-10T16:50:55.715Z,12.21
2023-05-10T16:53:25.355Z,13.08
2023-05-10T16:55:55.044Z,13.41
2023-05-10T16:58:27.295Z,13.48
2023-05-10T17:00:57.007Z,13.69
2023-05-10T17:03:26.741Z,14.05
2023-05-10T17:05:56.489Z,14.10
2023-05-10T17:08:26.222Z,13.89
2023-05-10T17:10:59.038Z,15.68
2023-05-10T17:13:32.115Z,15.80
2023-05-10T17:16:04.137Z,17.25
2023-05-10T17:18:33.899Z,17.40
2023-05-10T17:21:03.690Z,17.81
2023-05-10T17:23:33.352Z,19.27
2023-05-10T17:26:03.114Z,21.68
2023-05-10T17:28:35.540Z,23.35
2023-05-10T17:31:05.574Z,20.67
2023-05-10T17:33:35.255Z,18.78
2023-05-10T17:36:04.938Z,18.51
2023-05-10T17:38:34.666Z,18.04
2023-05-10T17:41:04.372Z,18.35
2023-05-10T17:43:36.704Z,18.90
2023-05-10T17:46:06.489Z,18.43
2023-05-10T17:48:37.157Z,18.25
2023-05-10T17:51:07.523Z,19.25
2023-05-10T17:53:37.502Z,19.68
2023-05-10T17:56:07.580Z,19.49
2023-05-10T17:58:40.475Z,19.56
2023-05-10T18:01:10.403Z,19.99
2023-05-10T18:03:40.087Z,20.58
2023-05-10T18:06:09.918Z,19.54
2023-05-10T18:08:39.630Z,20.46
2023-05-10T18:11:09.813Z,20.22
2023-05-10T18:13:42.219Z,20.16
2023-05-10T18:16:13.619Z,20.33
2023-05-10T18:18:43.637Z,20.41
2023-05-10T18:21:13.663Z,20.04
2023-05-10T18:23:43.487Z,19.85
2023-05-10T18:26:13.288Z,20.38
2023-05-10T18:28:45.611Z,20.22
2023-05-10T18:31:15.462Z,20.59
2023-05-10T18:33:45.162Z,20.92
2023-05-10T18:36:15.048Z,20.50
2023-05-10T18:38:44.795Z,20.32
2023-05-10T18:41:14.806Z,20.24
2023-05-10T18:43:47.114Z,21.10
2023-05-10T18:46:17.084Z,20.25
2023-05-10T18:48:46.879Z,20.77
2023-05-10T18:51:16.617Z,21.77
2023-05-10T18:53:46.689Z,21.81
2023-05-10T18:56:16.493Z,24.34
2023-05-10T18:58:48.859Z,24.89
2023-05-10T19:01:18.877Z,27.81
2023-05-10T19:03:48.603Z,26.90
2023-05-10T19:06:18.247Z,24.11
2023-05-10T19:08:48.001Z,24.14
2023-05-10T19:11:17.707Z,21.74
2023-05-10T19:13:49.987Z,22.01
2023-05-10T19:16:24.323Z,22.15
2023-05-10T19:18:56.559Z,22.83
2023-05-10T19:21:26.843Z,22.86
2023-05-10T19:23:58.447Z,23.40
2023-05-10T19:26:28.375Z,24.47
2023-05-10T19:29:00.717Z,25.53
2023-05-10T19:31:30.629Z,25.82
2023-05-10T19:34:01.063Z,26.55
2023-05-10T19:36:31.228Z,26.31
2023-05-10T19:39:01.084Z,25.15
2023-05-10T19:41:30.883Z,25.08
2023-05-10T19:44:03.100Z,25.51
2023-05-10T19:46:33.129Z,23.29
2023-05-10T19:49:02.939Z,24.00
2023-05-10T19:51:33.087Z,23.71
2023-05-10T19:54:02.851Z,23.55
2023-05-10T19:56:33.031Z,22.19
2023-05-10T19:59:07.947Z,21.29
2023-05-10T20:01:38.041Z,20.12
2023-05-10T20:04:07.876Z,19.67
2023-05-10T20:06:37.654Z,19.21
2023-05-10T20:09:07.381Z,19.10
2023-05-10T20:11:37.165Z,17.86
2023-05-10T20:14:09.715Z,17.51
2023-05-10T20:16:39.584Z,17.15
2023-05-10T20:19:09.604Z,17.48
2023-05-10T20:21:39.409Z,16.86
2023-05-10T20:24:09.833Z,15.78
2023-05-10T20:26:39.547Z,16.14
2023-05-10T20:29:13.408Z,16.21
2023-05-10T20:31:43.244Z,16.57
2023-05-10T20:34:13.413Z,16.42
2023-05-10T20:36:43.098Z,17.20
2023-05-10T20:39:13.066Z,17.55
2023-05-10T20:41:42.815Z,17.40
2023-05-10T20:44:15.092Z,17.22
2023-05-10T20:46:45.344Z,16.99
2023-05-10T20:49:15.023Z,17.24
2023-05-10T20:51:44.762Z,17.28
2023-05-10T20:54:14.433Z,16.74
2023-05-10T20:56:44.184Z,16.62
2023-05-10T20:59:16.614Z,16.75
2023-05-10T21:01:46.586Z,16.88
2023-05-10T21:04:16.372Z,15.94
2023-05-10T21:06:46.594Z,16.74
2023-05-10T21:09:17.230Z,16.66
2023-05-10T21:11:47.022Z,16.94
2023-05-10T21:14:19.409Z,17.43
2023-05-10T21:16:51.250Z,17.29
2023-05-10T21:19:21.015Z,16.99
2023-05-10T21:21:50.861Z,17.54
2023-05-10T21:24:20.559Z,16.51
2023-05-10T21:26:50.361Z,16.65
2023-05-10T21:29:22.616Z,16.86
2023-05-10T21:31:52.327Z,16.75
2023-05-10T21:34:22.111Z,17.00
2023-05-10T21:36:51.776Z,17.32
2023-05-10T21:39:21.444Z,17.17
2023-05-10T21:41:51.111Z,17.37
2023-05-10T21:44:23.420Z,17.05
2023-05-10T21:46:53.080Z,17.41
2023-05-10T21:49:22.810Z,17.32
2023-05-10T21:51:52.509Z,17.87
2023-05-10T21:54:22.302Z,17.75
2023-05-10T21:56:52.046Z,17.88
2023-05-10T21:59:24.372Z,17.72
2023-05-10T22:01:54.093Z,18.16
2023-05-10T22:04:23.759Z,17.87
2023-05-10T22:06:53.425Z,17.54
2023-05-10T22:09:24.470Z,18.00
2023-05-10T22:11:54.206Z,17.78
2023-05-10T22:14:26.620Z,18.88
2023-05-10T22:16:57.877Z,17.97
2023-05-10T22:19:27.602Z,18.20
2023-05-10T22:21:57.266Z,18.79
2023-05-10T22:24:27.237Z,18.60
2023-05-10T22:26:57.659Z,18.87
2023-05-10T22:29:30.440Z,18.45
2023-05-10T22:32:05.332Z,18.81
2023-05-10T22:34:35.677Z,19.16
2023-05-10T22:37:05.632Z,18.70
2023-05-10T22:39:35.301Z,18.86
2023-05-10T22:42:04.986Z,19.46
2023-05-10T22:44:37.637Z,18.93
2023-05-10T22:47:09.155Z,19.14
2023-05-10T22:49:39.245Z,18.73
2023-05-10T22:52:08.911Z,18.87
2023-05-10T22:54:38.613Z,19.77
2023-05-10T22:57:08.576Z,19.00
2023-05-10T22:59:40.988Z,19.24
2023-05-10T23:02:10.868Z,19.27
2023-05-10T23:04:40.569Z,19.06
2023-05-10T23:07:11.796Z,19.52
2023-05-10T23:09:41.505Z,19.91
2023-05-10T23:12:11.226Z,20.26
2023-05-10T23:14:46.489Z,19.77
2023-05-10T23:17:16.729Z,20.28
2023-05-10T23:19:48.086Z,20.12
2023-05-10T23:22:17.848Z,19.99
2023-05-10T23:24:47.543Z,19.60
2023-05-10T23:27:17.467Z,20.26
2023-05-10T23:29:52.473Z,20.61
2023-05-10T23:32:22.222Z,20.22
2023-05-10T23:34:52.327Z,21.00
2023-05-10T23:37:22.043Z,20.02
2023-05-10T23:39:52.280Z,20.03
2023-05-10T23:42:22.088Z,20.45
2023-05-10T23:44:54.506Z,20.48
2023-05-10T23:47:24.328Z,20.67
2023-05-10T23:49:54.035Z,21.07
2023-05-10T23:52:25.285Z,21.05
2023-05-10T23:54:55.495Z,21.20
2023-05-10T23:57:25.206Z,22.22
2023-05-10T23:59:57.427Z,21.91
